createdAt,value
2022-12-03T00:02:44.154Z,58.10
2022-12-03T00:09:03.709Z,58.03
2022-12-03T00:11:35.051Z,57.91
2022-12-03T00:14:19.696Z,58.15
2022-12-03T00:16:48.137Z,57.99
2022-12-03T00:19:30.774Z,58.20
2022-12-03T00:22:06.465Z,58.26
2022-12-03T00:24:37.272Z,58.18
2022-12-03T00:27:11.401Z,58.00
2022-12-03T00:29:40.489Z,58.10
2022-12-03T00:33:19.429Z,58.27
2022-12-03T00:35:53.542Z,58.10
2022-12-03T00:39:21.152Z,58.17
2022-12-03T00:42:00.970Z,58.22
2022-12-03T00:44:41.830Z,58.25
2022-12-03T00:47:16.933Z,58.26
2022-12-03T00:49:49.553Z,58.32
2022-12-03T00:52:23.228Z,58.13
2022-12-03T00:54:55.563Z,58.47
2022-12-03T00:57:37.786Z,58.47
2022-12-03T01:00:07.116Z,58.51
2022-12-03T01:02:49.061Z,58.54
2022-12-03T01:05:26.212Z,58.38
2022-12-03T01:07:56.905Z,58.54
2022-12-03T01:10:31.341Z,58.63
2022-12-03T01:13:01.539Z,58.41
2022-12-03T01:15:35.391Z,58.44
2022-12-03T01:18:28.633Z,58.75
2022-12-03T01:20:57.896Z,58.29
2022-12-03T01:23:31.955Z,58.32
2022-12-03T01:26:01.534Z,58.48
2022-12-03T01:28:36.590Z,58.28
2022-12-03T01:31:24.658Z,58.34
2022-12-03T01:33:57.165Z,58.23
2022-12-03T01:39:13.195Z,58.07
2022-12-03T01:42:02.137Z,58.15
2022-12-03T01:44:34.377Z,58.10
2022-12-03T01:47:10.713Z,58.34
2022-12-03T01:49:43.013Z,57.78
2022-12-03T01:52:28.483Z,57.92
2022-12-03T01:54:59.602Z,58.00
2022-12-03T01:57:47.556Z,57.86
2022-12-03T02:00:21.430Z,57.79
2022-12-03T02:02:51.131Z,58.13
2022-12-03T02:05:27.271Z,58.07
2022-12-03T02:07:56.557Z,57.64
2022-12-03T02:10:26.997Z,57.91
2022-12-03T02:12:58.842Z,58.02
2022-12-03T02:15:32.135Z,57.51
2022-12-03T02:18:08.408Z,57.55
2022-12-03T02:20:41.047Z,57.70
2022-12-03T02:23:31.532Z,57.75
2022-12-03T02:26:05.407Z,57.42
2022-12-03T02:28:33.777Z,57.58
2022-12-03T02:31:06.418Z,57.23
2022-12-03T02:33:37.916Z,57.66
2022-12-03T02:36:08.544Z,57.36
2022-12-03T02:38:38.659Z,57.25
2022-12-03T02:41:10.712Z,57.19
2022-12-03T02:43:40.316Z,57.24
2022-12-03T02:46:10.216Z,57.14
2022-12-03T02:48:39.836Z,56.88
2022-12-03T02:51:09.960Z,57.35
2022-12-03T02:53:42.546Z,56.74
2022-12-03T02:56:13.196Z,57.09
2022-12-03T02:58:42.988Z,56.85
2022-12-03T03:01:12.769Z,56.77
2022-12-03T03:03:43.312Z,57.03
2022-12-03T03:06:20.684Z,56.94
2022-12-03T03:08:49.405Z,56.34
2022-12-03T03:11:27.205Z,56.76
2022-12-03T03:14:03.446Z,56.63
2022-12-03T03:16:32.819Z,56.33
2022-12-03T03:19:02.314Z,56.60
2022-12-03T03:21:30.650Z,55.90
2022-12-03T03:24:00.466Z,55.65
2022-12-03T03:26:37.173Z,55.96
2022-12-03T03:29:08.003Z,56.06
2022-12-03T03:31:39.134Z,55.91
2022-12-03T03:34:15.202Z,55.83
2022-12-03T03:36:48.218Z,55.75
2022-12-03T03:39:17.541Z,55.95
2022-12-03T03:44:33.436Z,55.80
2022-12-03T03:47:02.658Z,55.61
2022-12-03T03:49:31.317Z,55.18
2022-12-03T03:52:04.110Z,55.04
2022-12-03T03:54:32.597Z,54.91
2022-12-03T03:57:08.604Z,55.13
2022-12-03T03:59:39.776Z,55.06
2022-12-03T04:02:09.202Z,54.29
2022-12-03T04:04:42.006Z,54.54
2022-12-03T04:07:22.263Z,53.63
2022-12-03T04:09:50.667Z,53.47
2022-12-03T04:12:46.464Z,53.63
2022-12-03T04:15:18.048Z,53.38
2022-12-03T04:18:11.257Z,53.60
2022-12-03T04:20:45.762Z,52.98
2022-12-03T04:23:16.294Z,52.53
2022-12-03T04:26:02.520Z,53.04
2022-12-03T04:28:56.893Z,52.77
2022-12-03T04:31:47.527Z,52.84
2022-12-03T04:34:33.509Z,53.08
2022-12-03T04:37:07.409Z,53.02
2022-12-03T04:39:41.111Z,52.94
2022-12-03T04:42:23.314Z,52.93
2022-12-03T04:44:54.638Z,52.99
2022-12-03T04:47:26.231Z,52.72
2022-12-03T04:49:55.146Z,52.92
2022-12-03T04:52:23.805Z,52.87
2022-12-03T04:54:56.403Z,52.67
2022-12-03T04:57:27.402Z,52.62
2022-12-03T05:00:13.700Z,52.33
2022-12-03T05:02:44.326Z,52.20
2022-12-03T05:05:13.941Z,52.38
2022-12-03T05:07:44.814Z,51.94
2022-12-03T05:10:19.917Z,52.05
2022-12-03T05:12:58.861Z,51.47
2022-12-03T05:15:32.281Z,51.17
2022-12-03T05:18:17.863Z,51.14
2022-12-03T05:20:53.314Z,51.53
2022-12-03T05:23:26.561Z,50.90
2022-12-03T05:26:00.924Z,51.28
2022-12-03T05:28:33.279Z,51.09
2022-12-03T05:31:06.287Z,51.40
2022-12-03T05:33:36.423Z,51.44
2022-12-03T05:36:11.702Z,51.33
2022-12-03T05:38:51.115Z,51.17
2022-12-03T05:41:44.136Z,51.35
2022-12-03T05:44:20.508Z,50.94
2022-12-03T05:46:57.006Z,50.96
2022-12-03T05:49:34.729Z,50.99
2022-12-03T05:52:10.847Z,51.28
2022-12-03T05:54:40.194Z,51.36
2022-12-03T05:57:12.438Z,51.36
2022-12-03T05:59:42.133Z,51.18
2022-12-03T06:02:11.951Z,51.78
2022-12-03T06:04:43.250Z,51.63
2022-12-03T06:07:14.197Z,51.18
2022-12-03T06:09:44.708Z,51.61
2022-12-03T06:12:13.845Z,51.43
2022-12-03T06:14:42.589Z,51.34
2022-12-03T06:17:13.813Z,51.41
2022-12-03T06:19:45.196Z,51.37
2022-12-03T06:22:15.252Z,51.45
2022-12-03T06:24:45.574Z,51.72
2022-12-03T06:27:14.597Z,51.66
2022-12-03T06:29:44.508Z,51.24
2022-12-03T06:32:17.360Z,51.82
2022-12-03T06:34:47.531Z,51.57
2022-12-03T06:37:18.260Z,51.40
2022-12-03T06:39:47.316Z,51.38
2022-12-03T06:42:23.589Z,51.29
2022-12-03T06:44:53.540Z,51.10
2022-12-03T06:47:25.988Z,51.30
2022-12-03T06:50:04.076Z,51.23
2022-12-03T06:52:35.482Z,50.98
2022-12-03T06:55:10.808Z,51.22
2022-12-03T06:57:45.555Z,51.30
2022-12-03T07:00:15.885Z,51.27
2022-12-03T07:02:46.986Z,50.76
2022-12-03T07:05:19.849Z,51.15
2022-12-03T07:07:53.268Z,50.63
2022-12-03T07:10:23.809Z,51.42
2022-12-03T07:12:53.500Z,51.36
2022-12-03T07:15:27.019Z,50.97
2022-12-03T07:17:57.001Z,50.93
2022-12-03T07:20:31.529Z,50.90
2022-12-03T07:23:18.899Z,50.43
2022-12-03T07:25:53.950Z,50.98
2022-12-03T07:28:29.312Z,50.79
2022-12-03T07:31:00.523Z,50.93
2022-12-03T07:33:34.451Z,50.58
2022-12-03T07:36:06.244Z,50.43
2022-12-03T07:38:36.423Z,50.54
2022-12-03T07:41:06.488Z,50.48
2022-12-03T07:43:36.996Z,50.39
2022-12-03T07:46:05.209Z,50.44
2022-12-03T07:48:43.921Z,49.80
2022-12-03T07:51:15.679Z,49.96
2022-12-03T07:53:44.924Z,50.02
2022-12-03T07:56:22.781Z,50.48
2022-12-03T07:58:51.022Z,50.53
2022-12-03T08:01:19.754Z,50.45
2022-12-03T08:03:52.745Z,50.33
2022-12-03T08:06:29.005Z,50.60
2022-12-03T08:09:00.178Z,50.63
2022-12-03T08:11:34.394Z,50.87
2022-12-03T08:14:06.097Z,50.75
2022-12-03T08:16:37.087Z,50.39
2022-12-03T08:19:11.095Z,50.29
2022-12-03T08:21:41.257Z,50.34
2022-12-03T08:24:27.911Z,50.42
2022-12-03T08:27:02.395Z,49.91
2022-12-03T08:29:33.367Z,49.78
2022-12-03T08:32:07.219Z,49.89
2022-12-03T08:35:03.997Z,49.37
2022-12-03T08:37:34.947Z,49.45
2022-12-03T08:42:52.503Z,49.47
2022-12-03T08:45:40.922Z,49.75
2022-12-03T08:48:32.727Z,49.69
2022-12-03T08:51:32.455Z,49.83
2022-12-03T08:54:06.853Z,49.46
2022-12-03T08:56:40.594Z,49.71
2022-12-03T08:59:23.475Z,49.59
2022-12-03T09:02:09.497Z,49.78
2022-12-03T09:04:55.558Z,50.06
2022-12-03T09:07:51.917Z,50.08
2022-12-03T09:10:40.710Z,50.29
2022-12-03T09:13:13.998Z,49.92
2022-12-03T09:15:54.663Z,49.87
2022-12-03T09:18:35.473Z,49.85
2022-12-03T09:21:12.567Z,50.02
2022-12-03T09:23:55.484Z,49.13
2022-12-03T09:26:57.375Z,49.42
2022-12-03T09:29:29.659Z,48.84
2022-12-03T09:35:01.088Z,48.47
2022-12-03T09:37:32.707Z,48.98
2022-12-03T09:40:14.909Z,48.20
2022-12-03T09:43:03.333Z,47.94
2022-12-03T09:45:36.581Z,47.88
2022-12-03T09:48:09.440Z,47.85
2022-12-03T09:50:40.612Z,47.98
2022-12-03T09:53:15.524Z,47.75
2022-12-03T09:55:50.341Z,47.94
2022-12-03T09:58:57.360Z,47.92
2022-12-03T10:01:30.348Z,47.72
2022-12-03T10:04:07.988Z,47.64
2022-12-03T10:07:01.865Z,47.85
2022-12-03T10:09:39.759Z,47.44
2022-12-03T10:12:16.021Z,47.86
2022-12-03T10:15:27.495Z,47.70
2022-12-03T10:18:16.996Z,47.71
2022-12-03T10:20:57.022Z,48.03
2022-12-03T10:23:30.916Z,47.90
2022-12-03T10:26:09.773Z,48.25
2022-12-03T10:28:50.972Z,48.28
2022-12-03T10:31:23.817Z,48.28
2022-12-03T10:34:24.125Z,48.43
2022-12-03T10:37:25.312Z,48.35
2022-12-03T10:40:05.977Z,48.34
2022-12-03T10:42:46.600Z,48.82
2022-12-03T10:45:47.064Z,48.42
2022-12-03T10:48:38.743Z,48.88
2022-12-03T10:58:08.174Z,49.33
2022-12-03T11:01:00.479Z,49.26
2022-12-03T11:03:33.253Z,49.15
2022-12-03T11:06:04.811Z,49.56
2022-12-03T11:08:54.750Z,49.53
2022-12-03T11:11:37.068Z,49.55
2022-12-03T11:14:19.632Z,49.58
2022-12-03T11:17:12.393Z,49.74
2022-12-03T11:20:07.864Z,49.94
2022-12-03T11:22:51.080Z,50.19
2022-12-03T11:26:17.076Z,49.76
2022-12-03T11:28:59.868Z,49.98
2022-12-03T11:31:46.882Z,49.95
2022-12-03T11:34:56.097Z,50.10
2022-12-03T11:37:38.673Z,49.96
2022-12-03T11:40:40.491Z,50.24
2022-12-03T11:43:17.144Z,49.96
2022-12-03T11:45:49.872Z,50.11
2022-12-03T11:48:23.433Z,49.92
2022-12-03T11:51:00.194Z,49.91
2022-12-03T11:54:13.390Z,50.26
2022-12-03T11:57:31.620Z,50.41
2022-12-03T12:00:56.577Z,50.44
2022-12-03T12:03:53.695Z,50.42
2022-12-03T12:06:47.481Z,49.68
2022-12-03T12:09:58.366Z,49.81
2022-12-03T12:24:07.475Z,50.34
2022-12-03T12:27:11.466Z,50.31
2022-12-03T12:30:19.119Z,50.60
2022-12-03T12:44:55.168Z,50.21
2022-12-03T12:47:49.104Z,50.34
2022-12-03T12:50:48.195Z,50.59
2022-12-03T13:04:46.500Z,50.54
2022-12-03T13:08:26.322Z,50.57
2022-12-03T13:14:53.296Z,50.44
2022-12-03T13:20:56.437Z,50.30
2022-12-03T13:29:39.538Z,50.47
2022-12-03T13:32:47.100Z,50.29
2022-12-03T13:35:54.014Z,50.07
2022-12-03T13:39:29.015Z,50.31
2022-12-03T13:43:14.111Z,50.15
2022-12-03T13:54:49.064Z,50.36
2022-12-03T13:57:29.163Z,50.24
2022-12-03T14:16:53.052Z,50.95
2022-12-03T14:27:58.765Z,51.25
2022-12-03T14:30:40.150Z,51.16
2022-12-03T14:33:18.418Z,51.28
2022-12-03T14:35:58.027Z,51.49
2022-12-03T14:42:15.225Z,51.22
2022-12-03T14:45:12.335Z,51.30
2022-12-03T14:47:48.495Z,51.54
2022-12-03T14:50:40.437Z,50.97
2022-12-03T19:17:30.132Z,52.56
2022-12-03T19:20:20.625Z,52.33
